Time;durP1;ratioP1;P1;durP2;ratioP2;P2;SDS_P1;SDS_P2;PMS_P1;PMS_P2;Temp;Humidity;BMP_temperature;BMP_pressure;BME280_temperature;BME280_humidity;BME280_pressure;Samples;Min_cycle;Max_cycle;Signal;HPM_P1;HPM_P2
2021/12/06 00:01:18;;;;;;;52.83;42.53;;;2.30;99.90;;;;;;5067100;28;20048;-72
2021/12/06 00:03:56;;;;;;;54.87;43.30;;;2.20;99.90;;;;;;5066355;28;20048;-72
2021/12/06 00:06:25;;;;;;;56.03;43.70;;;2.30;99.90;;;;;;5066148;28;20048;-71
2021/12/06 00:08:52;;;;;;;55.30;43.00;;;2.30;99.90;;;;;;5066717;28;20063;-71
2021/12/06 00:11:18;;;;;;;57.37;43.43;;;2.30;99.90;;;;;;5049020;28;20059;-72
2021/12/06 00:13:47;;;;;;;56.07;42.23;;;2.30;99.90;;;;;;5066457;28;20109;-72
2021/12/06 00:16:18;;;;;;;60.20;42.57;;;2.20;99.90;;;;;;5066836;28;20048;-72
2021/12/06 00:18:45;;;;;;;63.50;44.27;;;2.30;99.90;;;;;;5066362;28;20554;-73
2021/12/06 00:21:12;;;;;;;61.60;43.70;;;2.20;99.90;;;;;;5069307;28;20060;-72
2021/12/06 00:23:38;;;;;;;64.37;44.53;;;2.30;99.90;;;;;;5068950;28;20040;-73
2021/12/06 00:26:06;;;;;;;63.93;42.80;;;2.20;99.90;;;;;;5087466;28;20113;-72
2021/12/06 00:28:32;;;;;;;63.23;45.07;;;2.20;99.90;;;;;;5085435;28;20063;-72
2021/12/06 00:30:59;;;;;;;63.20;44.77;;;2.20;99.90;;;;;;5086791;28;20093;-72
2021/12/06 00:33:27;;;;;;;63.93;43.93;;;2.20;99.90;;;;;;5088101;28;20078;-72
2021/12/06 00:35:56;;;;;;;63.03;43.27;;;2.20;99.90;;;;;;5087468;28;20060;-72
2021/12/06 00:38:22;;;;;;;59.07;42.57;;;2.20;99.90;;;;;;5020762;28;20052;-72
2021/12/06 00:40:49;;;;;;;64.37;45.17;;;2.20;99.90;;;;;;5036893;28;20033;-72
2021/12/06 00:43:16;;;;;;;65.00;46.53;;;2.20;99.90;;;;;;5036957;28;20044;-72
2021/12/06 00:45:43;;;;;;;61.97;43.57;;;2.20;99.90;;;;;;5036549;28;20083;-72
2021/12/06 00:48:09;;;;;;;66.27;44.63;;;2.20;99.90;;;;;;5052735;28;20041;-72
2021/12/06 00:50:39;;;;;;;70.37;46.33;;;2.20;99.90;;;;;;5053143;28;20072;-72
2021/12/06 00:53:05;;;;;;;70.82;47.03;;;2.20;99.90;;;;;;5053623;28;20052;-72
2021/12/06 00:55:33;;;;;;;72.20;47.83;;;2.10;99.90;;;;;;5053406;28;20048;-72
2021/12/06 00:57:59;;;;;;;76.23;49.13;;;2.20;99.90;;;;;;5054237;28;20082;-72
2021/12/06 01:00:36;;;;;;;68.27;45.43;;;2.20;99.90;;;;;;5070221;28;20040;-72
2021/12/06 01:03:10;;;;;;;75.37;50.30;;;2.20;99.90;;;;;;5054037;28;20060;-72
2021/12/06 01:05:36;;;;;;;76.50;48.87;;;2.20;99.90;;;;;;5069512;28;20169;-72
2021/12/06 01:08:01;;;;;;;81.07;52.20;;;2.20;99.90;;;;;;5070271;28;20621;-72
2021/12/06 01:10:29;;;;;;;79.67;49.63;;;2.20;99.90;;;;;;5057712;28;20064;-72
2021/12/06 01:12:56;;;;;;;78.77;49.23;;;2.20;99.90;;;;;;5066884;28;20052;-72
2021/12/06 01:15:22;;;;;;;71.70;48.70;;;2.20;99.90;;;;;;5072022;28;20052;-72
2021/12/06 01:17:49;;;;;;;75.20;48.93;;;2.20;99.90;;;;;;5068846;28;20131;-72
2021/12/06 01:20:20;;;;;;;73.90;47.93;;;2.30;99.90;;;;;;5036054;28;20036;-72
2021/12/06 01:22:53;;;;;;;74.30;48.60;;;2.20;99.90;;;;;;5068751;28;20048;-72
2021/12/06 01:41:19;;;;;;;79.30;49.20;;;2.30;99.90;;;;;;5070379;28;20106;-72
2021/12/06 01:44:21;;;;;;;75.93;49.77;;;2.20;99.90;;;;;;5066959;28;20507;-72
2021/12/06 01:46:50;;;;;;;75.03;49.80;;;2.20;99.90;;;;;;5068710;28;20044;-72
2021/12/06 01:49:18;;;;;;;77.00;50.13;;;2.20;99.90;;;;;;5072667;28;20127;-73
2021/12/06 01:51:46;;;;;;;72.67;47.90;;;2.20;99.90;;;;;;5065851;28;20534;-73
2021/12/06 01:54:14;;;;;;;74.73;49.57;;;2.20;99.90;;;;;;5071538;28;20052;-73
2021/12/06 01:56:41;;;;;;;73.10;47.63;;;2.30;99.90;;;;;;5088536;28;20059;-73
2021/12/06 01:59:07;;;;;;;76.13;49.63;;;2.40;99.90;;;;;;5090241;28;20047;-72
2021/12/06 02:01:34;;;;;;;75.43;48.47;;;2.30;99.90;;;;;;5088890;28;20123;-73
2021/12/06 02:04:00;;;;;;;75.93;48.47;;;2.30;99.90;;;;;;5071888;28;20131;-73
2021/12/06 02:06:27;;;;;;;76.00;49.77;;;2.30;99.90;;;;;;5071004;28;20048;-73
2021/12/06 02:08:53;;;;;;;80.13;51.67;;;2.40;99.90;;;;;;5088527;28;20044;-73
2021/12/06 02:11:19;;;;;;;83.50;51.67;;;2.30;99.90;;;;;;5053825;28;20048;-73
2021/12/06 02:13:56;;;;;;;87.43;52.20;;;2.30;99.90;;;;;;5051130;28;20052;-72
2021/12/06 02:16:31;;;;;;;75.33;48.73;;;2.30;99.90;;;;;;5051765;28;20470;-72
2021/12/06 02:19:03;;;;;;;79.57;50.27;;;2.30;99.90;;;;;;5050609;28;20055;-72
2021/12/06 02:21:33;;;;;;;78.13;48.37;;;2.40;99.90;;;;;;5087953;28;20767;-72
2021/12/06 02:24:06;;;;;;;80.05;50.42;;;2.30;99.90;;;;;;5071976;28;20047;-72
2021/12/06 02:26:32;;;;;;;76.20;49.60;;;2.30;99.90;;;;;;5069684;28;20064;-72
2021/12/06 02:28:58;;;;;;;82.00;51.57;;;2.30;99.90;;;;;;5039096;28;20513;-73
2021/12/06 02:31:26;;;;;;;80.03;50.63;;;2.30;99.90;;;;;;5088896;28;20048;-72
2021/12/06 02:33:52;;;;;;;83.10;51.73;;;2.30;99.90;;;;;;5072427;28;20048;-72
2021/12/06 02:36:20;;;;;;;79.07;50.27;;;2.30;99.90;;;;;;5077145;28;20053;-73
2021/12/06 02:38:46;;;;;;;78.60;49.73;;;2.30;99.90;;;;;;5068640;28;20051;-73
2021/12/06 02:41:14;;;;;;;77.83;48.07;;;2.40;99.90;;;;;;5069001;28;20399;-73
2021/12/06 02:43:40;;;;;;;76.07;49.67;;;2.40;99.90;;;;;;5051475;28;20137;-73
2021/12/06 02:46:07;;;;;;;79.43;49.77;;;2.40;99.90;;;;;;5052020;28;20052;-73
2021/12/06 02:48:33;;;;;;;80.83;49.40;;;2.40;99.90;;;;;;5034755;28;20045;-73
2021/12/06 02:51:01;;;;;;;81.83;51.23;;;2.40;99.90;;;;;;5067734;28;20044;-72
2021/12/06 02:53:29;;;;;;;79.53;49.43;;;2.50;99.90;;;;;;5050877;28;20050;-72
2021/12/06 02:55:59;;;;;;;79.53;48.83;;;2.40;99.90;;;;;;5063387;28;20817;-72
2021/12/06 03:01:13;;;;;;;78.63;48.33;;;2.40;99.90;;;;;;5082621;28;20048;-73
2021/12/06 03:03:39;;;;;;;80.43;48.43;;;2.40;99.90;;;;;;5052834;28;20050;-73
2021/12/06 03:06:06;;;;;;;81.17;48.80;;;2.30;99.90;;;;;;5048363;28;20032;-72
2021/12/06 03:08:41;;;;;;;85.07;52.07;;;2.30;99.90;;;;;;5066462;28;20036;-73
2021/12/06 03:11:11;;;;;;;84.80;50.53;;;2.30;99.90;;;;;;5048844;28;20131;-73
2021/12/06 03:13:40;;;;;;;87.78;49.95;;;2.30;99.90;;;;;;5066386;28;20423;-73
2021/12/06 03:16:07;;;;;;;80.67;49.07;;;2.30;99.90;;;;;;5033283;28;20060;-72
2021/12/06 03:18:33;;;;;;;91.03;52.30;;;2.30;99.90;;;;;;5077342;28;20060;-72
2021/12/06 03:20:59;;;;;;;90.10;53.17;;;2.30;99.90;;;;;;5085866;28;20044;-73
2021/12/06 03:23:25;;;;;;;93.40;51.20;;;2.40;99.90;;;;;;5067142;28;20040;-72
2021/12/06 03:25:51;;;;;;;90.97;51.73;;;2.30;99.90;;;;;;5065165;28;20051;-72
2021/12/06 03:28:17;;;;;;;99.93;56.43;;;2.30;99.90;;;;;;5047730;28;20119;-73
2021/12/06 03:30:42;;;;;;;93.07;51.43;;;2.30;99.90;;;;;;5047737;28;20078;-72
2021/12/06 03:33:08;;;;;;;88.00;50.77;;;2.40;99.90;;;;;;5065534;28;20032;-73
2021/12/06 03:35:34;;;;;;;94.20;53.57;;;2.30;99.90;;;;;;5048385;28;20036;-73
2021/12/06 03:38:00;;;;;;;87.10;51.40;;;2.30;99.90;;;;;;5051168;28;20054;-73
2021/12/06 03:40:26;;;;;;;91.97;52.13;;;2.30;99.90;;;;;;5070032;28;20155;-72
2021/12/06 03:42:53;;;;;;;92.57;52.90;;;2.30;99.90;;;;;;5064103;28;20117;-72
2021/12/06 03:45:19;;;;;;;92.07;51.60;;;2.30;99.90;;;;;;5070717;28;20689;-73
2021/12/06 03:47:45;;;;;;;92.20;51.03;;;2.30;99.90;;;;;;5054663;28;20106;-72
2021/12/06 03:50:12;;;;;;;98.67;54.83;;;2.40;99.90;;;;;;5069582;28;20499;-73
2021/12/06 03:52:38;;;;;;;96.83;52.57;;;2.40;99.90;;;;;;5054105;28;20499;-73
2021/12/06 03:55:07;;;;;;;101.93;55.83;;;2.40;99.90;;;;;;5054700;28;20088;-73
2021/12/06 03:57:33;;;;;;;97.20;53.97;;;2.40;99.90;;;;;;5058352;28;20045;-72
2021/12/06 03:59:59;;;;;;;91.70;51.50;;;2.40;99.90;;;;;;5074253;28;20064;-73
2021/12/06 04:02:29;;;;;;;97.50;54.67;;;2.40;99.90;;;;;;5049664;28;20082;-72
2021/12/06 04:04:55;;;;;;;97.80;54.42;;;2.40;99.90;;;;;;5075126;28;20044;-72
2021/12/06 04:07:22;;;;;;;101.57;54.27;;;2.40;99.90;;;;;;5043915;28;20390;-73
2021/12/06 04:09:47;;;;;;;103.83;54.83;;;2.40;99.90;;;;;;5053949;28;20135;-72
2021/12/06 04:12:14;;;;;;;105.20;57.70;;;2.40;99.90;;;;;;5079457;28;20130;-72
2021/12/06 04:14:41;;;;;;;105.20;55.80;;;2.40;99.90;;;;;;5071947;28;20098;-72
2021/12/06 04:17:09;;;;;;;108.43;57.60;;;2.50;99.90;;;;;;5072790;28;20565;-72
2021/12/06 04:19:35;;;;;;;111.30;59.77;;;2.40;99.90;;;;;;5053762;28;20040;-71
2021/12/06 04:22:02;;;;;;;121.47;60.10;;;2.40;99.90;;;;;;5082196;28;20071;-72
2021/12/06 04:24:28;;;;;;;117.77;60.00;;;2.40;99.90;;;;;;5058738;28;20489;-72
2021/12/06 04:26:54;;;;;;;114.67;60.80;;;2.40;99.90;;;;;;5053070;28;20032;-72
2021/12/06 04:29:20;;;;;;;113.10;58.80;;;2.50;99.90;;;;;;5055195;28;20068;-72
2021/12/06 04:31:49;;;;;;;118.03;59.20;;;2.40;99.90;;;;;;5066252;28;20040;-72
2021/12/06 04:34:15;;;;;;;118.83;60.93;;;2.50;99.90;;;;;;5080838;28;20043;-72
2021/12/06 04:36:43;;;;;;;116.70;60.20;;;2.50;99.90;;;;;;5074067;28;20103;-74
2021/12/06 04:39:13;;;;;;;123.53;60.83;;;2.40;99.90;;;;;;5062736;28;20060;-74
2021/12/06 04:41:39;;;;;;;127.22;62.30;;;2.40;99.90;;;;;;5062818;28;20395;-72
2021/12/06 04:44:05;;;;;;;124.90;62.07;;;2.50;99.90;;;;;;5042393;28;20053;-71
2021/12/06 04:46:31;;;;;;;133.77;65.90;;;2.40;99.90;;;;;;5056309;28;20062;-72
2021/12/06 04:48:57;;;;;;;125.03;62.70;;;2.40;99.90;;;;;;5067434;28;20032;-72
2021/12/06 04:51:23;;;;;;;126.30;61.13;;;2.40;99.90;;;;;;5062349;28;20051;-71
2021/12/06 04:53:52;;;;;;;115.73;58.07;;;2.40;99.90;;;;;;5067727;28;20044;-71
2021/12/06 04:56:24;;;;;;;104.17;56.17;;;2.50;99.90;;;;;;5048405;28;20106;-72
2021/12/06 04:59:18;;;;;;;108.97;57.27;;;2.40;99.90;;;;;;5069766;28;20049;-72
2021/12/06 05:01:46;;;;;;;115.33;58.97;;;2.50;99.90;;;;;;5052763;28;20093;-72
2021/12/06 05:04:25;;;;;;;117.73;60.73;;;2.50;99.90;;;;;;5068993;28;20053;-71
2021/12/06 05:06:55;;;;;;;112.57;56.23;;;2.50;99.90;;;;;;5057082;28;20127;-72
2021/12/06 05:09:31;;;;;;;104.28;55.72;;;2.50;99.90;;;;;;5084470;28;20040;-71
2021/12/06 05:11:58;;;;;;;109.73;59.00;;;2.50;99.90;;;;;;5061653;28;20048;-71
2021/12/06 05:14:27;;;;;;;101.87;56.50;;;2.50;99.90;;;;;;5047698;28;20052;-71
2021/12/06 05:16:54;;;;;;;101.30;56.60;;;2.50;99.90;;;;;;5048735;28;20068;-72
2021/12/06 05:19:20;;;;;;;102.07;54.27;;;2.50;99.90;;;;;;5086154;28;20131;-71
2021/12/06 05:21:46;;;;;;;100.77;54.87;;;2.50;99.90;;;;;;5087501;28;20052;-71
2021/12/06 05:24:15;;;;;;;99.03;55.70;;;2.60;99.90;;;;;;5087815;28;20101;-72
2021/12/06 05:26:42;;;;;;;107.10;54.83;;;2.50;99.90;;;;;;5070645;28;20587;-72
2021/12/06 05:29:08;;;;;;;103.47;56.70;;;2.60;99.90;;;;;;5070893;28;20453;-72
2021/12/06 05:31:39;;;;;;;113.23;58.77;;;2.50;99.90;;;;;;5087643;28;20427;-72
2021/12/06 05:34:11;;;;;;;114.43;59.30;;;2.50;99.90;;;;;;5071259;28;20074;-71
2021/12/06 05:36:37;;;;;;;118.73;58.53;;;2.50;99.90;;;;;;5079242;28;20056;-72
2021/12/06 05:39:06;;;;;;;122.47;60.40;;;2.50;99.90;;;;;;5033823;28;20491;-72
2021/12/06 05:41:36;;;;;;;119.97;59.27;;;2.50;99.90;;;;;;5050111;28;20045;-71
2021/12/06 05:44:03;;;;;;;115.18;58.28;;;2.50;99.90;;;;;;5035104;28;20042;-71
2021/12/06 05:46:29;;;;;;;114.40;57.27;;;2.50;99.90;;;;;;5068033;28;20041;-71
2021/12/06 05:48:55;;;;;;;117.30;60.10;;;2.50;99.90;;;;;;5067818;28;20036;-72
2021/12/06 05:51:21;;;;;;;116.73;59.00;;;2.50;99.90;;;;;;5059065;28;20520;-72
2021/12/06 05:53:47;;;;;;;115.63;57.60;;;2.50;99.90;;;;;;5088120;28;20052;-73
2021/12/06 05:56:13;;;;;;;116.60;58.13;;;2.50;99.90;;;;;;5054007;28;20048;-71
2021/12/06 05:58:40;;;;;;;109.37;56.33;;;2.50;99.90;;;;;;5087978;28;20048;-72
2021/12/06 06:01:06;;;;;;;110.00;56.97;;;2.50;99.90;;;;;;5078761;28;20063;-72
2021/12/06 06:03:32;;;;;;;117.30;56.37;;;2.50;99.90;;;;;;5071501;28;20773;-71
2021/12/06 06:06:01;;;;;;;112.67;56.97;;;2.50;99.90;;;;;;5055465;28;20052;-71
2021/12/06 06:08:27;;;;;;;113.70;58.67;;;2.50;99.90;;;;;;5080577;28;20044;-72
2021/12/06 06:10:54;;;;;;;113.70;57.67;;;2.50;99.90;;;;;;5072170;28;20551;-74
2021/12/06 06:13:20;;;;;;;121.27;58.47;;;2.60;99.90;;;;;;5073232;28;20060;-72
2021/12/06 06:15:49;;;;;;;122.63;59.07;;;2.60;99.90;;;;;;5068440;28;20538;-72
2021/12/06 06:18:15;;;;;;;118.97;58.87;;;2.60;99.90;;;;;;5067467;28;20057;-72
2021/12/06 06:20:43;;;;;;;117.90;59.37;;;2.60;99.90;;;;;;5059087;28;20052;-71
2021/12/06 06:23:09;;;;;;;121.23;57.23;;;2.70;99.90;;;;;;5076170;28;20052;-72
2021/12/06 06:25:35;;;;;;;122.10;59.10;;;2.60;99.90;;;;;;5068067;28;20102;-72
2021/12/06 06:28:03;;;;;;;107.90;55.27;;;2.60;99.90;;;;;;5067271;28;20325;-71
2021/12/06 06:30:29;;;;;;;114.77;57.03;;;2.50;99.90;;;;;;5064946;28;20101;-72
2021/12/06 06:32:55;;;;;;;117.10;57.13;;;2.60;99.90;;;;;;5061609;28;20044;-73
2021/12/06 06:35:22;;;;;;;122.00;58.10;;;2.60;99.90;;;;;;5053843;28;20047;-73
2021/12/06 06:37:48;;;;;;;113.00;56.53;;;2.60;99.90;;;;;;5069330;28;20096;-72
2021/12/06 06:40:14;;;;;;;114.50;57.23;;;2.60;99.90;;;;;;5070650;28;20087;-72
2021/12/06 06:42:40;;;;;;;112.23;56.97;;;2.60;99.90;;;;;;5063323;28;20414;-72
2021/12/06 06:45:08;;;;;;;117.57;57.03;;;2.60;99.90;;;;;;5065778;28;20066;-73
2021/12/06 06:47:34;;;;;;;113.30;56.40;;;2.60;99.90;;;;;;5074850;28;20047;-73
2021/12/06 06:49:59;;;;;;;109.93;57.97;;;2.60;99.90;;;;;;5058727;28;20371;-74
2021/12/06 06:52:25;;;;;;;103.13;52.77;;;2.60;99.90;;;;;;5078270;28;20045;-73
2021/12/06 06:54:51;;;;;;;107.37;54.40;;;2.60;99.90;;;;;;5059977;28;20533;-73
2021/12/06 06:57:17;;;;;;;111.47;54.47;;;2.60;99.90;;;;;;5076759;28;20511;-74
2021/12/06 06:59:45;;;;;;;109.90;55.80;;;2.60;99.90;;;;;;5069077;28;20036;-73
2021/12/06 07:02:12;;;;;;;113.63;55.43;;;2.60;99.90;;;;;;5066651;28;20102;-73
2021/12/06 07:04:38;;;;;;;117.13;56.40;;;2.50;99.90;;;;;;5064166;28;20040;-73
2021/12/06 07:07:04;;;;;;;108.07;53.50;;;2.50;99.90;;;;;;5063902;28;21033;-73
2021/12/06 07:09:30;;;;;;;120.20;56.63;;;2.60;99.90;;;;;;5067128;28;20484;-73
2021/12/06 07:11:58;;;;;;;113.10;55.40;;;2.50;99.90;;;;;;5070006;28;20040;-74
2021/12/06 07:14:27;;;;;;;113.03;54.93;;;2.50;99.90;;;;;;5067002;28;20048;-72
2021/12/06 07:16:53;;;;;;;110.10;55.23;;;2.50;99.90;;;;;;5056528;28;20032;-73
2021/12/06 07:19:19;;;;;;;114.93;56.47;;;2.60;99.90;;;;;;5071636;28;20043;-72
2021/12/06 07:21:45;;;;;;;113.83;54.17;;;2.50;99.90;;;;;;5069085;28;20043;-72
2021/12/06 07:24:11;;;;;;;112.73;54.63;;;2.50;99.90;;;;;;5067697;28;20048;-72
2021/12/06 07:26:37;;;;;;;104.40;51.97;;;2.50;99.90;;;;;;5051503;28;20153;-72
2021/12/06 07:29:04;;;;;;;102.07;51.30;;;2.50;99.90;;;;;;5060868;28;20508;-72
2021/12/06 07:31:30;;;;;;;99.07;53.03;;;2.50;99.90;;;;;;5051537;28;20631;-73
2021/12/06 07:33:56;;;;;;;90.00;49.17;;;2.50;99.90;;;;;;5050077;28;20051;-73
2021/12/06 07:36:25;;;;;;;89.60;48.73;;;2.50;99.90;;;;;;5066804;28;20043;-72
2021/12/06 07:38:51;;;;;;;86.60;48.40;;;2.50;99.90;;;;;;5052824;28;20517;-73
2021/12/06 07:41:21;;;;;;;87.30;48.43;;;2.40;99.90;;;;;;5064926;28;20086;-73
2021/12/06 07:43:47;;;;;;;97.13;49.93;;;2.50;99.90;;;;;;5053801;28;20040;-72
2021/12/06 07:46:15;;;;;;;96.77;50.50;;;2.50;99.90;;;;;;5073812;28;20346;-72
2021/12/06 07:48:42;;;;;;;100.47;49.33;;;2.60;99.90;;;;;;5059026;28;20063;-71
2021/12/06 07:51:08;;;;;;;95.03;49.83;;;2.50;99.90;;;;;;5063645;28;20548;-73
2021/12/06 07:53:38;;;;;;;88.23;46.60;;;2.50;99.90;;;;;;5048193;28;20040;-72
2021/12/06 07:56:05;;;;;;;83.20;47.22;;;2.50;99.90;;;;;;5063787;28;20046;-71
2021/12/06 07:58:31;;;;;;;79.97;45.97;;;2.50;99.90;;;;;;5070360;28;20425;-71
2021/12/06 08:00:56;;;;;;;87.10;47.93;;;2.50;99.90;;;;;;5054041;28;20052;-73
2021/12/06 08:03:23;;;;;;;80.73;45.77;;;2.50;99.90;;;;;;5065970;28;20068;-71
2021/12/06 08:05:51;;;;;;;86.67;47.50;;;2.50;99.90;;;;;;5064037;28;20512;-72
2021/12/06 08:08:23;;;;;;;86.07;47.17;;;2.50;99.90;;;;;;5053085;28;20036;-71
2021/12/06 08:10:52;;;;;;;82.87;46.37;;;2.50;99.90;;;;;;5066807;28;20290;-72
2021/12/06 08:13:20;;;;;;;88.03;47.63;;;2.50;99.90;;;;;;5076659;28;20067;-72
2021/12/06 08:15:46;;;;;;;84.70;47.63;;;2.50;99.90;;;;;;5049661;28;20071;-72
2021/12/06 08:18:12;;;;;;;90.73;49.40;;;2.50;99.90;;;;;;5055101;28;20052;-72
2021/12/06 08:20:39;;;;;;;89.73;49.80;;;2.50;99.90;;;;;;5030766;28;20122;-72
2021/12/06 08:23:06;;;;;;;90.10;49.97;;;2.40;99.90;;;;;;5057019;28;20564;-72
2021/12/06 08:25:32;;;;;;;90.73;50.10;;;2.40;99.90;;;;;;5060774;28;20291;-72
2021/12/06 08:27:59;;;;;;;80.97;46.30;;;2.40;99.90;;;;;;5065426;28;20082;-72
2021/12/06 08:30:26;;;;;;;83.77;47.27;;;2.40;99.90;;;;;;5034495;28;20403;-72
2021/12/06 08:32:58;;;;;;;88.53;47.07;;;2.30;99.90;;;;;;5069794;28;20071;-72
2021/12/06 08:35:28;;;;;;;89.77;48.07;;;2.40;99.90;;;;;;5061016;28;20101;-72
2021/12/06 08:37:59;;;;;;;86.03;48.20;;;2.40;99.90;;;;;;5040016;28;20095;-71
2021/12/06 08:40:26;;;;;;;83.37;48.50;;;2.40;99.90;;;;;;5061687;28;20535;-71
2021/12/06 08:42:52;;;;;;;84.07;46.83;;;2.40;99.90;;;;;;5064059;28;20603;-72
2021/12/06 08:45:18;;;;;;;79.60;45.77;;;2.40;99.90;;;;;;5068803;28;20060;-73
2021/12/06 08:47:44;;;;;;;82.40;46.40;;;2.40;99.90;;;;;;5063879;28;20376;-73
2021/12/06 08:50:15;;;;;;;84.47;46.13;;;2.40;99.90;;;;;;5047478;28;20682;-72
2021/12/06 08:52:41;;;;;;;75.13;43.70;;;2.30;99.90;;;;;;5063461;28;20234;-72
2021/12/06 08:55:09;;;;;;;80.93;43.73;;;2.30;99.90;;;;;;5054411;28;20147;-73
2021/12/06 08:57:35;;;;;;;71.93;42.03;;;2.30;99.90;;;;;;5076133;28;20043;-72
2021/12/06 09:00:03;;;;;;;67.17;39.37;;;2.30;99.90;;;;;;5078155;28;20266;-72
2021/12/06 09:02:29;;;;;;;66.80;41.37;;;2.30;99.90;;;;;;5066374;28;20518;-72
2021/12/06 09:04:56;;;;;;;66.33;39.97;;;2.30;99.90;;;;;;5081375;28;20040;-72
2021/12/06 09:07:24;;;;;;;64.50;39.20;;;2.40;99.90;;;;;;5054483;28;20225;-72
2021/12/06 09:09:50;;;;;;;71.00;41.03;;;2.40;99.90;;;;;;5057906;28;20047;-72
2021/12/06 09:12:22;;;;;;;67.23;41.27;;;2.40;99.90;;;;;;5070536;28;20049;-73
2021/12/06 09:14:49;;;;;;;68.03;41.27;;;2.50;99.90;;;;;;5050924;28;20139;-72
2021/12/06 09:17:15;;;;;;;65.33;41.50;;;2.40;99.90;;;;;;5065640;28;20506;-72
2021/12/06 09:19:41;;;;;;;68.47;41.23;;;2.40;99.90;;;;;;5043511;28;20055;-72
2021/12/06 09:22:07;;;;;;;69.70;43.93;;;2.40;99.90;;;;;;5072945;28;20044;-73
2021/12/06 09:24:33;;;;;;;68.53;42.73;;;2.50;99.90;;;;;;5063863;28;20321;-72
2021/12/06 09:27:01;;;;;;;76.30;45.53;;;2.50;99.90;;;;;;5049468;28;20044;-72
2021/12/06 09:29:27;;;;;;;82.73;49.17;;;2.50;99.90;;;;;;5064911;28;20066;-73
2021/12/06 09:31:54;;;;;;;84.43;49.80;;;2.50;99.90;;;;;;5072629;28;20402;-73
2021/12/06 09:34:20;;;;;;;89.00;52.80;;;2.60;99.90;;;;;;5055672;28;20067;-73
2021/12/06 09:36:47;;;;;;;107.10;57.43;;;2.60;99.90;;;;;;5058952;28;20453;-72
2021/12/06 09:39:14;;;;;;;100.23;57.63;;;2.50;99.90;;;;;;5066807;28;20466;-72
2021/12/06 09:41:40;;;;;;;120.60;63.03;;;2.50;99.90;;;;;;5051090;28;20513;-72
2021/12/06 09:44:09;;;;;;;107.77;60.03;;;2.50;99.90;;;;;;5070291;28;20048;-72
2021/12/06 09:46:37;;;;;;;114.60;61.37;;;2.50;99.90;;;;;;5066649;28;20037;-72
2021/12/06 09:49:13;;;;;;;108.93;60.47;;;2.50;99.90;;;;;;5049576;28;20052;-72
2021/12/06 09:51:42;;;;;;;94.60;56.00;;;2.60;99.90;;;;;;5063044;28;20048;-72
2021/12/06 09:54:09;;;;;;;91.50;51.87;;;2.60;99.90;;;;;;5068100;28;20542;-72
2021/12/06 09:56:42;;;;;;;85.93;52.00;;;2.50;99.90;;;;;;5063504;28;20037;-72
2021/12/06 09:59:13;;;;;;;82.90;49.60;;;2.60;99.90;;;;;;5049366;28;20498;-72
2021/12/06 10:01:46;;;;;;;;;;;2.70;99.90;;;;;;5067623;28;20049;-73
2021/12/06 10:04:14;;;;;;;77.67;48.40;;;2.60;99.90;;;;;;5066646;28;19959;-73
2021/12/06 10:06:42;;;;;;;64.30;41.97;;;2.60;99.90;;;;;;5028004;28;20423;-73
2021/12/06 10:09:10;;;;;;;69.27;43.33;;;2.60;99.90;;;;;;5066439;28;20047;-72
2021/12/06 10:11:37;;;;;;;66.07;42.33;;;2.60;99.90;;;;;;5067252;28;20505;-73
2021/12/06 10:14:04;;;;;;;59.70;38.70;;;2.70;99.90;;;;;;5052274;28;20037;-73
2021/12/06 10:16:31;;;;;;;59.07;37.30;;;2.70;99.90;;;;;;5067097;28;20366;-73
2021/12/06 10:19:01;;;;;;;58.57;37.73;;;2.60;99.90;;;;;;5059890;28;20451;-73
2021/12/06 10:21:27;;;;;;;61.55;37.80;;;2.60;99.90;;;;;;5046646;28;20040;-73
2021/12/06 10:23:55;;;;;;;59.43;38.60;;;2.60;99.90;;;;;;5048415;28;20118;-73
2021/12/06 10:26:24;;;;;;;59.70;37.07;;;2.60;99.90;;;;;;5066971;28;20158;-73
2021/12/06 10:29:20;;;;;;;62.27;37.17;;;2.60;99.90;;;;;;5065065;28;20029;-73
2021/12/06 10:31:47;;;;;;;59.10;37.47;;;2.70;99.90;;;;;;5065616;28;20044;-72
2021/12/06 10:34:24;;;;;;;65.27;41.40;;;2.70;99.90;;;;;;5054842;28;20050;-72
2021/12/06 10:36:53;;;;;;;63.37;39.67;;;2.80;99.90;;;;;;5073511;28;20049;-72
2021/12/06 10:39:23;;;;;;;65.13;40.80;;;2.80;99.90;;;;;;5069009;28;20680;-72
2021/12/06 10:41:51;;;;;;;58.78;36.42;;;2.80;99.90;;;;;;5068376;28;20041;-73
2021/12/06 10:44:17;;;;;;;50.67;34.53;;;2.80;99.90;;;;;;5052446;28;20165;-72
2021/12/06 10:46:51;;;;;;;52.80;34.67;;;2.80;99.90;;;;;;5048614;28;20051;-72
2021/12/06 10:49:23;;;;;;;50.13;32.30;;;2.80;99.90;;;;;;5047010;28;20448;-72
2021/12/06 10:51:49;;;;;;;49.73;33.40;;;2.80;99.90;;;;;;5046788;28;20102;-73
2021/12/06 10:54:33;;;;;;;47.17;33.13;;;2.80;99.90;;;;;;5047279;28;20052;-71
2021/12/06 10:57:02;;;;;;;45.83;33.13;;;2.80;99.90;;;;;;5068604;28;20044;-71
2021/12/06 10:59:37;;;;;;;46.13;32.33;;;2.80;99.90;;;;;;5074104;28;20056;-71
2021/12/06 11:02:12;;;;;;;46.00;32.07;;;2.80;99.90;;;;;;5061140;28;20059;-73
2021/12/06 11:04:42;;;;;;;44.90;31.67;;;2.80;99.90;;;;;;5057509;28;20055;-73
2021/12/06 11:07:09;;;;;;;48.30;32.53;;;2.80;99.90;;;;;;5065398;28;20102;-73
2021/12/06 11:09:41;;;;;;;49.33;32.33;;;2.80;99.90;;;;;;5046138;28;20051;-73
2021/12/06 11:12:08;;;;;;;45.70;31.83;;;2.80;99.90;;;;;;5062792;28;20040;-71
2021/12/06 11:14:40;;;;;;;44.23;31.80;;;2.80;99.90;;;;;;5067863;28;20032;-74
2021/12/06 11:17:19;;;;;;;44.33;31.10;;;2.80;99.90;;;;;;5066298;28;20786;-73
2021/12/06 11:19:51;;;;;;;42.60;29.53;;;2.80;99.90;;;;;;5064274;28;20507;-73
2021/12/06 11:22:23;;;;;;;45.07;30.27;;;2.80;99.90;;;;;;5079145;28;20071;-73
2021/12/06 11:24:51;;;;;;;42.40;29.60;;;2.80;99.90;;;;;;5064489;28;20301;-74
2021/12/06 11:27:21;;;;;;;46.23;31.00;;;2.80;99.90;;;;;;5082848;28;20304;-74
2021/12/06 11:30:08;;;;;;;43.53;30.23;;;2.80;99.90;;;;;;5075454;28;20122;-73
2021/12/06 11:32:36;;;;;;;46.50;31.43;;;2.90;99.90;;;;;;5073009;28;20036;-74
2021/12/06 11:35:12;;;;;;;53.17;33.90;;;2.90;99.90;;;;;;5063339;28;20067;-73
2021/12/06 11:37:44;;;;;;;49.37;32.97;;;2.90;99.90;;;;;;5068072;28;20052;-73
2021/12/06 11:40:15;;;;;;;52.60;33.93;;;2.90;99.90;;;;;;5052735;28;20052;-73
2021/12/06 11:42:59;;;;;;;48.07;32.80;;;2.90;99.90;;;;;;5067014;28;20109;-73
2021/12/06 11:45:46;;;;;;;50.10;33.23;;;2.90;99.90;;;;;;5067681;28;20139;-73
2021/12/06 11:48:25;;;;;;;54.87;33.37;;;3.00;99.90;;;;;;5054011;28;20082;-73
2021/12/06 11:51:06;;;;;;;50.73;34.37;;;3.00;99.90;;;;;;5067823;28;20052;-74
2021/12/06 11:53:35;;;;;;;55.08;34.38;;;3.00;99.90;;;;;;5064291;28;20906;-74
2021/12/06 11:56:07;;;;;;;51.88;33.83;;;3.00;99.90;;;;;;5047827;28;20729;-73
2021/12/06 11:58:43;;;;;;;51.47;33.17;;;3.10;99.90;;;;;;5057911;28;20060;-71
2021/12/06 12:01:32;;;;;;;49.63;32.60;;;3.10;99.90;;;;;;5070954;28;20644;-72
2021/12/06 12:04:01;;;;;;;48.37;31.53;;;3.10;99.90;;;;;;5044553;28;20071;-72
2021/12/06 12:06:31;;;;;;;48.73;31.80;;;3.20;99.90;;;;;;5061783;28;20132;-71
2021/12/06 12:09:06;;;;;;;44.75;30.10;;;3.20;99.90;;;;;;5061313;28;20310;-71
2021/12/06 12:11:50;;;;;;;43.03;29.73;;;3.30;99.90;;;;;;5052369;28;20044;-72
2021/12/06 12:14:16;;;;;;;41.97;28.43;;;3.30;99.90;;;;;;5065635;28;20070;-72
2021/12/06 12:16:42;;;;;;;42.40;27.93;;;3.30;99.90;;;;;;5052838;28;20030;-71
2021/12/06 12:19:08;;;;;;;42.47;28.23;;;3.40;99.90;;;;;;5067268;28;20086;-72
2021/12/06 12:21:33;;;;;;;43.63;28.77;;;3.30;99.90;;;;;;5051959;28;20440;-72
2021/12/06 12:23:59;;;;;;;46.97;30.30;;;3.30;99.90;;;;;;5036009;28;20399;-72
2021/12/06 12:26:25;;;;;;;50.30;32.03;;;3.30;99.90;;;;;;5026136;28;20072;-72
2021/12/06 12:28:59;;;;;;;47.07;30.37;;;3.40;99.90;;;;;;5049646;28;20040;-72
2021/12/06 12:31:27;;;;;;;46.60;30.30;;;3.40;99.90;;;;;;5039034;28;20217;-72
2021/12/06 12:33:57;;;;;;;51.53;32.90;;;3.40;99.90;;;;;;5051959;28;20055;-72
2021/12/06 12:36:25;;;;;;;57.77;35.30;;;3.40;99.90;;;;;;5071727;28;20055;-72
2021/12/06 12:38:56;;;;;;;56.33;34.90;;;3.40;99.90;;;;;;5060038;28;20055;-72
2021/12/06 12:41:24;;;;;;;54.60;33.20;;;3.40;99.90;;;;;;5076165;28;20109;-72
2021/12/06 12:43:54;;;;;;;61.47;37.60;;;3.30;99.90;;;;;;5049065;28;20040;-72
2021/12/06 12:46:22;;;;;;;63.08;38.25;;;3.40;99.90;;;;;;5066052;28;20098;-73
2021/12/06 12:49:03;;;;;;;63.20;38.37;;;3.40;99.90;;;;;;5060040;28;20032;-71
2021/12/06 12:51:36;;;;;;;68.57;40.97;;;3.40;99.90;;;;;;5066762;28;20047;-73
2021/12/06 12:54:25;;;;;;;74.83;42.97;;;3.30;99.90;;;;;;5062775;28;20040;-73
2021/12/06 12:56:53;;;;;;;68.40;42.13;;;3.30;99.90;;;;;;5069016;28;20090;-73
2021/12/06 12:59:32;;;;;;;67.50;42.30;;;3.30;99.90;;;;;;5064971;28;20446;-73